createdAt,value
2017-09-19T00:00:01.566Z,0
2017-09-19T00:01:01.554Z,0
2017-09-19T00:02:01.205Z,0
2017-09-19T00:03:01.195Z,0
2017-09-19T00:04:01.814Z,0
2017-09-19T00:05:01.807Z,0
2017-09-19T00:06:00.825Z,0
2017-09-19T00:07:01.463Z,0
2017-09-19T00:08:01.441Z,0
2017-09-19T00:09:01.439Z,0
2017-09-19T00:10:01.089Z,0
2017-09-19T00:11:01.428Z,0
2017-09-19T00:12:01.065Z,0
2017-09-19T00:13:01.040Z,0
2017-09-19T00:14:01.027Z,0
2017-09-19T00:15:01.336Z,0
2017-09-19T00:16:01.324Z,0
2017-09-19T00:17:00.661Z,0
2017-09-19T00:18:01.290Z,0
2017-09-19T00:19:01.611Z,0
2017-09-19T00:20:01.262Z,0
2017-09-19T00:21:00.604Z,0
2017-09-19T00:22:00.915Z,0
2017-09-19T00:23:01.234Z,0
2017-09-19T00:24:01.207Z,0
2017-09-19T00:25:00.873Z,0
2017-09-19T00:26:00.854Z,0
2017-09-19T00:27:00.836Z,0
2017-09-19T00:28:00.835Z,0
2017-09-19T00:29:00.490Z,0
2017-09-19T00:30:00.801Z,0
2017-09-19T00:31:01.109Z,0
2017-09-19T00:32:01.408Z,0
2017-09-19T00:33:01.402Z,0
2017-09-19T00:34:01.063Z,0
2017-09-19T00:35:00.723Z,0
2017-09-19T00:36:01.047Z,0
2017-09-19T00:37:00.691Z,0
2017-09-19T00:38:00.677Z,0
2017-09-19T00:39:00.348Z,0
2017-09-19T00:40:00.984Z,0
2017-09-19T00:41:01.280Z,0
2017-09-19T00:42:01.308Z,0
2017-09-19T00:43:00.931Z,0
2017-09-19T00:44:00.910Z,0
2017-09-19T00:45:00.900Z,0
2017-09-19T00:46:01.206Z,0
2017-09-19T00:47:00.551Z,0
2017-09-19T00:48:00.533Z,0
2017-09-19T00:49:00.516Z,0
2017-09-19T00:50:00.828Z,0
2017-09-19T00:51:00.165Z,0
2017-09-19T00:52:00.154Z,0
2017-09-19T00:53:00.777Z,0
2017-09-19T00:54:00.766Z,0
2017-09-19T00:55:00.753Z,0
2017-09-19T00:56:00.736Z,0
2017-09-19T00:57:00.408Z,0
2017-09-19T00:58:01.022Z,0
2017-09-19T00:59:00.691Z,0
2017-09-19T01:00:00.360Z,0
2017-09-19T01:01:00.341Z,0
2017-09-19T01:02:00.657Z,0
2017-09-19T01:03:00.316Z,0
2017-09-19T01:03:59.976Z,0
2017-09-19T01:05:00.604Z,0
2017-09-19T01:05:59.950Z,0
2017-09-19T01:07:00.577Z,0
2017-09-19T01:08:00.603Z,0
2017-09-19T01:09:00.545Z,0
2017-09-19T01:10:00.903Z,0
2017-09-19T01:11:00.201Z,0
2017-09-19T01:12:00.182Z,0
2017-09-19T01:13:00.171Z,0
2017-09-19T01:14:00.470Z,0
2017-09-19T01:15:00.141Z,0
2017-09-19T01:16:00.125Z,0
2017-09-19T01:17:00.431Z,0
2017-09-19T01:18:00.107Z,0
2017-09-19T01:18:59.761Z,0
2017-09-19T01:20:00.394Z,0
2017-09-19T01:21:00.375Z,0
2017-09-19T01:22:00.367Z,0
2017-09-19T01:23:00.344Z,0
2017-09-19T01:24:00.327Z,0
2017-09-19T01:25:00.312Z,0
2017-09-19T01:25:59.986Z,0
2017-09-19T01:26:59.650Z,0
2017-09-19T01:28:00.272Z,0
2017-09-19T01:28:59.934Z,0
2017-09-19T01:30:00.240Z,0
2017-09-19T01:31:00.227Z,0
2017-09-19T01:32:00.210Z,0
2017-09-19T01:32:59.876Z,0
2017-09-19T01:34:00.184Z,0
2017-09-19T01:35:00.491Z,0
2017-09-19T01:35:59.832Z,0
2017-09-19T01:36:59.824Z,0
2017-09-19T01:37:59.805Z,0
2017-09-19T01:38:59.797Z,0
2017-09-19T01:40:00.430Z,0
2017-09-19T01:40:59.779Z,0
2017-09-19T01:42:00.392Z,0
2017-09-19T01:43:00.051Z,0
2017-09-19T01:44:00.365Z,0
2017-09-19T01:44:59.707Z,0
2017-09-19T01:46:00.016Z,0
2017-09-19T01:47:00.318Z,0
2017-09-19T01:48:00.185Z,0
2017-09-19T01:48:59.966Z,0
2017-09-19T01:49:59.951Z,0
2017-09-19T01:50:59.638Z,0
2017-09-19T01:51:59.602Z,0
2017-09-19T01:52:59.914Z,0
2017-09-19T01:53:59.893Z,0
2017-09-19T01:54:59.561Z,0
2017-09-19T01:56:00.185Z,0
2017-09-19T01:56:59.846Z,0
2017-09-19T01:58:00.203Z,0
2017-09-19T01:58:59.506Z,0
2017-09-19T01:59:59.804Z,0
2017-09-19T02:00:59.471Z,0
2017-09-19T02:01:59.783Z,0
2017-09-19T02:02:59.760Z,0
2017-09-19T02:03:59.430Z,0
2017-09-19T02:04:59.738Z,0
2017-09-19T02:05:59.403Z,0
2017-09-19T02:06:59.699Z,0
2017-09-19T02:07:59.372Z,0
2017-09-19T02:08:59.676Z,0
2017-09-19T02:09:59.673Z,0
2017-09-19T02:10:59.971Z,0
2017-09-19T02:11:59.954Z,0
2017-09-19T02:12:59.301Z,0
2017-09-19T02:13:59.602Z,0
2017-09-19T02:14:59.590Z,0
2017-09-19T02:15:59.575Z,0
2017-09-19T02:16:59.243Z,0
2017-09-19T02:17:59.549Z,0
2017-09-19T02:18:58.896Z,0
2017-09-19T02:19:59.834Z,0
2017-09-19T02:20:59.186Z,0
2017-09-19T02:21:59.485Z,0
2017-09-19T02:22:58.832Z,0
2017-09-19T02:23:59.457Z,0
2017-09-19T02:24:59.445Z,0
2017-09-19T02:25:59.429Z,0
2017-09-19T02:26:59.145Z,0
2017-09-19T02:27:59.722Z,0
2017-09-19T02:28:59.111Z,0
2017-09-19T02:29:59.398Z,0
2017-09-19T02:30:59.356Z,0
2017-09-19T02:31:59.029Z,0
2017-09-19T02:32:59.336Z,0
2017-09-19T02:33:59.320Z,0
2017-09-19T02:34:59.007Z,0
2017-09-19T02:35:58.967Z,0
2017-09-19T02:36:59.273Z,0
2017-09-19T02:37:59.585Z,0
2017-09-19T02:38:59.256Z,0
2017-09-19T02:39:58.908Z,0
2017-09-19T02:40:59.228Z,0
2017-09-19T02:41:59.202Z,0
2017-09-19T02:42:59.193Z,0
2017-09-19T02:43:59.176Z,0
2017-09-19T02:44:59.158Z,0
2017-09-19T02:45:58.883Z,0
2017-09-19T02:46:59.146Z,0
2017-09-19T02:47:59.132Z,0
2017-09-19T02:48:59.433Z,0
2017-09-19T02:49:58.775Z,0
2017-09-19T02:50:58.836Z,0
2017-09-19T02:51:59.057Z,0
2017-09-19T02:52:59.053Z,0
2017-09-19T02:53:59.033Z,0
2017-09-19T02:54:58.732Z,0
2017-09-19T02:55:59.011Z,0
2017-09-19T02:56:59.010Z,0
2017-09-19T02:57:58.663Z,0
2017-09-19T02:58:58.329Z,0
2017-09-19T02:59:58.940Z,0
2017-09-19T03:00:58.933Z,0
2017-09-19T03:01:59.241Z,0
2017-09-19T03:02:58.585Z,0
2017-09-19T03:03:58.902Z,0
2017-09-19T03:04:58.888Z,0
2017-09-19T03:05:58.866Z,0
2017-09-19T03:06:58.859Z,0
2017-09-19T03:07:58.193Z,0
2017-09-19T03:08:59.154Z,0
2017-09-19T03:09:58.806Z,0
2017-09-19T03:10:58.486Z,0
2017-09-19T03:11:58.459Z,0
2017-09-19T03:12:58.462Z,0
2017-09-19T03:13:58.764Z,0
2017-09-19T03:14:58.422Z,0
2017-09-19T03:15:58.726Z,0
2017-09-19T03:16:58.388Z,0
2017-09-19T03:17:58.692Z,0
2017-09-19T03:18:58.359Z,0
2017-09-19T03:19:58.341Z,0
2017-09-19T03:20:58.328Z,0
2017-09-19T03:21:58.015Z,0
2017-09-19T03:22:58.628Z,0
2017-09-19T03:23:58.629Z,0
2017-09-19T03:24:57.957Z,0
2017-09-19T03:25:58.261Z,0
2017-09-19T03:26:58.580Z,0
2017-09-19T03:27:58.552Z,0
2017-09-19T03:28:58.214Z,0
2017-09-19T03:29:58.207Z,0
2017-09-19T03:30:58.514Z,0
2017-09-19T03:31:58.606Z,0
2017-09-19T03:32:58.499Z,0
2017-09-19T03:33:57.843Z,0
2017-09-19T03:34:58.456Z,0
2017-09-19T03:35:58.495Z,0
2017-09-19T03:36:58.106Z,0
2017-09-19T03:37:58.420Z,0
2017-09-19T03:38:58.394Z,0
2017-09-19T03:39:58.702Z,0
2017-09-19T03:40:58.370Z,0
2017-09-19T03:41:58.357Z,0
2017-09-19T03:42:58.342Z,0
2017-09-19T03:43:58.328Z,0
2017-09-19T03:44:58.313Z,0
2017-09-19T03:45:57.976Z,0
2017-09-19T03:46:57.962Z,0
2017-09-19T03:47:58.157Z,0
2017-09-19T03:48:58.266Z,0
2017-09-19T03:49:57.923Z,0
2017-09-19T03:50:58.258Z,0
2017-09-19T03:51:58.538Z,0
2017-09-19T03:52:58.196Z,0
2017-09-19T03:53:58.190Z,0
2017-09-19T03:54:57.851Z,0
2017-09-19T03:55:57.519Z,0
2017-09-19T03:56:57.819Z,0
2017-09-19T03:57:57.811Z,0
2017-09-19T03:58:58.117Z,0
2017-09-19T03:59:58.430Z,0
2017-09-19T04:00:57.450Z,0
2017-09-19T04:01:58.074Z,0
2017-09-19T04:02:57.738Z,0
2017-09-19T04:03:57.730Z,0
2017-09-19T04:04:58.041Z,0
2017-09-19T04:05:58.016Z,0
2017-09-19T04:06:57.364Z,0
2017-09-19T04:07:58.314Z,0
2017-09-19T04:08:57.332Z,0
2017-09-19T04:09:57.641Z,0
2017-09-19T04:10:58.266Z,0
2017-09-19T04:11:57.618Z,0
2017-09-19T04:12:57.601Z,0
2017-09-19T04:13:57.587Z,0
2017-09-19T04:14:57.889Z,0
2017-09-19T04:15:57.550Z,0
2017-09-19T04:16:57.542Z,0
2017-09-19T04:17:57.849Z,0
2017-09-19T04:18:57.189Z,0
2017-09-19T04:19:57.529Z,0
2017-09-19T04:20:57.160Z,0
2017-09-19T04:21:57.150Z,0
2017-09-19T04:22:58.102Z,0
2017-09-19T04:23:57.127Z,0
2017-09-19T04:24:57.762Z,0
2017-09-19T04:25:57.419Z,0
2017-09-19T04:26:57.078Z,0
2017-09-19T04:27:57.703Z,0
2017-09-19T04:28:57.696Z,0
2017-09-19T04:29:57.677Z,0
2017-09-19T04:30:57.987Z,0
2017-09-19T04:31:57.655Z,0
2017-09-19T04:32:57.639Z,0
2017-09-19T04:33:57.300Z,0
2017-09-19T04:34:57.287Z,0
2017-09-19T04:35:57.276Z,0
2017-09-19T04:36:57.901Z,0
2017-09-19T04:37:57.244Z,0
2017-09-19T04:38:56.910Z,0
2017-09-19T04:39:57.221Z,0
2017-09-19T04:40:57.200Z,0
2017-09-19T04:41:57.511Z,0
2017-09-19T04:42:57.496Z,0
2017-09-19T04:43:57.186Z,0
2017-09-19T04:44:57.145Z,0
2017-09-19T04:45:56.807Z,0
2017-09-19T04:46:57.442Z,0
2017-09-19T04:47:57.120Z,0
2017-09-19T04:48:57.089Z,0
2017-09-19T04:49:56.757Z,4
2017-09-19T04:50:57.381Z,0
2017-09-19T04:51:57.688Z,4
2017-09-19T04:52:57.348Z,0
2017-09-19T04:53:57.660Z,4
2017-09-19T04:54:56.999Z,4
2017-09-19T04:55:57.003Z,4
2017-09-19T04:56:56.973Z,8
2017-09-19T04:57:56.970Z,8
2017-09-19T04:58:57.588Z,8
2017-09-19T04:59:57.579Z,8
2017-09-19T05:00:57.238Z,4
2017-09-19T05:01:56.581Z,4
2017-09-19T05:02:57.211Z,8
2017-09-19T05:03:57.196Z,8
2017-09-19T05:04:56.875Z,12
2017-09-19T05:05:57.526Z,12
2017-09-19T05:06:57.180Z,8
2017-09-19T05:07:56.830Z,12
2017-09-19T05:08:57.133Z,16
2017-09-19T05:09:56.786Z,16
2017-09-19T05:10:57.105Z,24
2017-09-19T05:11:57.402Z,24
2017-09-19T05:12:56.743Z,32
2017-09-19T05:13:56.409Z,36
2017-09-19T05:14:56.722Z,36
2017-09-19T05:15:56.704Z,52
2017-09-19T05:16:56.688Z,64
2017-09-19T05:17:57.320Z,76
2017-09-19T05:18:56.974Z,80
2017-09-19T05:19:56.969Z,84
2017-09-19T05:20:57.276Z,88
2017-09-19T05:21:56.614Z,96
2017-09-19T05:22:56.278Z,100
2017-09-19T05:23:56.908Z,112
2017-09-19T05:24:56.895Z,128
2017-09-19T05:25:56.561Z,140
2017-09-19T05:26:56.865Z,164
2017-09-19T05:27:56.213Z,184
2017-09-19T05:28:56.869Z,200
2017-09-19T05:29:56.502Z,216
2017-09-19T05:30:56.485Z,224
2017-09-19T05:31:56.792Z,236
2017-09-19T05:32:56.138Z,244
2017-09-19T05:33:57.081Z,248
2017-09-19T05:34:56.745Z,260
2017-09-19T05:35:56.739Z,272
2017-09-19T05:36:56.395Z,288
2017-09-19T05:37:56.706Z,292
2017-09-19T05:38:56.363Z,296
2017-09-19T05:39:57.025Z,284
2017-09-19T05:40:56.665Z,284
2017-09-19T05:41:56.332Z,300
2017-09-19T05:42:56.310Z,328
2017-09-19T05:43:56.295Z,356
2017-09-19T05:44:56.598Z,384
2017-09-19T05:45:56.271Z,412
2017-09-19T05:46:55.929Z,436
2017-09-19T05:47:56.965Z,448
2017-09-19T05:48:56.224Z,464
2017-09-19T05:49:56.526Z,464
2017-09-19T05:50:56.197Z,460
2017-09-19T05:51:56.499Z,468
2017-09-19T05:52:56.808Z,488
2017-09-19T05:53:56.486Z,516
2017-09-19T05:54:56.458Z,560
2017-09-19T05:55:56.766Z,600
2017-09-19T05:56:56.748Z,632
2017-09-19T05:57:56.089Z,648
2017-09-19T05:58:56.082Z,664
2017-09-19T05:59:56.411Z,660
2017-09-19T06:00:56.053Z,668
2017-09-19T06:01:56.681Z,660
2017-09-19T06:02:56.350Z,664
2017-09-19T06:03:56.337Z,700
2017-09-19T06:04:56.312Z,756
2017-09-19T06:05:55.976Z,792
2017-09-19T06:06:56.283Z,796
2017-09-19T06:07:56.269Z,752
2017-09-19T06:08:56.256Z,736
2017-09-19T06:09:56.234Z,736
2017-09-19T06:10:56.546Z,740
2017-09-19T06:11:55.572Z,768
2017-09-19T06:12:56.513Z,804
2017-09-19T06:13:56.508Z,840
2017-09-19T06:14:55.528Z,912
2017-09-19T06:15:56.159Z,996
2017-09-19T06:16:56.148Z,1036
2017-09-19T06:17:56.124Z,1016
2017-09-19T06:18:55.786Z,1056
2017-09-19T06:19:56.100Z,1208
2017-09-19T06:20:55.767Z,1284
2017-09-19T06:21:56.071Z,1272
2017-09-19T06:22:56.386Z,1252
2017-09-19T06:23:55.723Z,1180
2017-09-19T06:24:56.348Z,1040
2017-09-19T06:25:55.368Z,888
2017-09-19T06:26:55.999Z,752
2017-09-19T06:27:55.340Z,664
2017-09-19T06:28:55.982Z,564
2017-09-19T06:29:55.637Z,476
2017-09-19T06:30:55.943Z,440
2017-09-19T06:31:55.926Z,476
2017-09-19T06:32:56.227Z,576
2017-09-19T06:33:56.247Z,700
2017-09-19T06:34:56.214Z,856
2017-09-19T06:35:55.545Z,1048
2017-09-19T06:36:56.177Z,1312
2017-09-19T06:37:55.846Z,1524
2017-09-19T06:38:56.145Z,1660
2017-09-19T06:39:55.819Z,1800
2017-09-19T06:40:55.474Z,1916
2017-09-19T06:41:55.463Z,1916
2017-09-19T06:42:55.447Z,1864
2017-09-19T06:43:55.111Z,1860
2017-09-19T06:44:55.786Z,1864
2017-09-19T06:45:55.729Z,1812
2017-09-19T06:46:55.393Z,1740
2017-09-19T06:47:55.377Z,1788
2017-09-19T06:48:55.363Z,1828
2017-09-19T06:49:55.027Z,1808
2017-09-19T06:50:55.015Z,1724
2017-09-19T06:51:55.320Z,1552
2017-09-19T06:52:55.628Z,1504
2017-09-19T06:53:55.314Z,1488
2017-09-19T06:54:55.922Z,1380
2017-09-19T06:55:55.601Z,1268
2017-09-19T06:56:55.253Z,1240
2017-09-19T06:57:55.262Z,1192
2017-09-19T06:58:55.565Z,1144
2017-09-19T06:59:55.205Z,1088
2017-09-19T07:00:55.206Z,964
2017-09-19T07:01:55.186Z,796
2017-09-19T07:02:55.841Z,672
2017-09-19T07:03:55.153Z,644
2017-09-19T07:04:55.485Z,636
2017-09-19T07:05:55.125Z,632
2017-09-19T07:06:55.481Z,664
2017-09-19T07:07:54.781Z,692
2017-09-19T07:08:55.406Z,736
2017-09-19T07:09:55.069Z,792
2017-09-19T07:10:55.699Z,868
2017-09-19T07:11:55.369Z,916
2017-09-19T07:12:55.349Z,940
2017-09-19T07:13:55.359Z,1064
2017-09-19T07:14:55.329Z,1072
2017-09-19T07:15:55.635Z,1012
2017-09-19T07:16:55.297Z,924
2017-09-19T07:17:55.281Z,952
2017-09-19T07:18:54.945Z,900
2017-09-19T07:19:54.925Z,808
2017-09-19T07:20:54.592Z,832
2017-09-19T07:21:55.272Z,936
2017-09-19T07:22:54.571Z,1040
2017-09-19T07:23:55.200Z,1116
2017-09-19T07:24:54.538Z,1184
2017-09-19T07:25:54.868Z,1184
2017-09-19T07:26:55.160Z,1264
2017-09-19T07:27:54.502Z,1332
2017-09-19T07:28:54.802Z,1320
2017-09-19T07:29:54.789Z,1224
2017-09-19T07:30:55.444Z,1072
2017-09-19T07:31:54.768Z,1064
2017-09-19T07:32:54.751Z,984
2017-09-19T07:33:54.418Z,924
2017-09-19T07:34:55.094Z,924
2017-09-19T07:35:55.040Z,920
2017-09-19T07:36:54.699Z,964
2017-09-19T07:37:54.999Z,1056
2017-09-19T07:38:55.315Z,1168
2017-09-19T07:39:54.972Z,1280
2017-09-19T07:40:54.967Z,1384
2017-09-19T07:41:54.944Z,1564
2017-09-19T07:42:54.293Z,1792
2017-09-19T07:43:54.305Z,2160
2017-09-19T07:44:54.585Z,2480
2017-09-19T07:45:54.261Z,2584
2017-09-19T07:46:54.881Z,2476
2017-09-19T07:47:55.197Z,2112
2017-09-19T07:48:55.179Z,1664
2017-09-19T07:49:54.841Z,1456
2017-09-19T07:50:54.177Z,1436
2017-09-19T07:51:54.487Z,1488
2017-09-19T07:52:54.792Z,1456
2017-09-19T07:53:54.140Z,1364
2017-09-19T07:54:54.769Z,1088
2017-09-19T07:55:54.443Z,976
2017-09-19T07:56:54.743Z,1196
2017-09-19T07:57:54.413Z,1744
2017-09-19T07:58:54.710Z,2424
2017-09-19T07:59:54.380Z,2816
2017-09-19T08:00:54.683Z,2784
2017-09-19T08:01:54.357Z,2356
2017-09-19T08:02:54.341Z,2156
2017-09-19T08:03:54.643Z,2056
2017-09-19T08:04:54.631Z,1720
2017-09-19T08:05:54.297Z,1416
2017-09-19T08:06:54.922Z,1452
2017-09-19T08:07:53.944Z,1504
2017-09-19T08:08:54.259Z,1516
2017-09-19T08:09:54.242Z,1528
2017-09-19T08:10:54.231Z,1524
2017-09-19T08:11:54.534Z,1528
2017-09-19T08:12:54.523Z,1912
2017-09-19T08:13:54.186Z,1848
2017-09-19T08:14:54.501Z,2016
2017-09-19T08:15:54.188Z,1988
2017-09-19T08:16:54.794Z,2148
2017-09-19T08:17:54.168Z,2432
2017-09-19T08:18:54.461Z,2664
2017-09-19T08:19:54.106Z,2928
2017-09-19T08:20:54.100Z,3104
2017-09-19T08:21:54.398Z,3120
2017-09-19T08:22:54.075Z,2944
2017-09-19T08:23:54.695Z,2812
2017-09-19T08:24:54.358Z,2696
2017-09-19T08:25:54.024Z,2452
2017-09-19T08:26:54.655Z,2184
2017-09-19T08:27:54.320Z,1984
2017-09-19T08:28:53.663Z,1940
2017-09-19T08:29:53.972Z,2000
2017-09-19T08:30:54.273Z,2040
2017-09-19T08:31:54.269Z,2008
2017-09-19T08:32:53.949Z,1952
2017-09-19T08:33:53.917Z,1876
2017-09-19T08:34:53.914Z,1820
2017-09-19T08:35:54.206Z,1788
2017-09-19T08:36:54.196Z,1844
2017-09-19T08:37:54.502Z,1968
2017-09-19T08:38:54.491Z,2228
2017-09-19T08:39:54.153Z,2608
2017-09-19T08:40:53.824Z,3172
2017-09-19T08:41:53.488Z,3360
2017-09-19T08:42:54.443Z,3292
2017-09-19T08:43:53.779Z,3636
2017-09-19T08:44:53.771Z,3340
2017-09-19T08:45:54.079Z,4392
2017-09-19T08:46:53.419Z,4732
2017-09-19T08:47:54.114Z,4764
2017-09-19T08:48:53.710Z,5076
2017-09-19T08:49:53.375Z,5332
2017-09-19T08:50:53.690Z,5372
2017-09-19T08:51:53.989Z,5408
2017-09-19T08:52:54.306Z,5880
2017-09-19T08:53:53.649Z,5924
2017-09-19T08:54:53.631Z,5716
2017-09-19T08:55:53.298Z,5772
2017-09-19T08:56:53.603Z,6060
2017-09-19T08:57:54.295Z,6456
2017-09-19T08:58:53.582Z,6960
2017-09-19T08:59:54.211Z,7316
2017-09-19T09:00:53.553Z,7512
2017-09-19T09:01:53.541Z,7596
2017-09-19T09:02:54.170Z,7664
2017-09-19T09:03:53.834Z,7900
2017-09-19T09:04:53.822Z,8252
2017-09-19T09:05:53.815Z,8528
2017-09-19T09:06:53.799Z,8416
2017-09-19T09:07:53.471Z,8000
2017-09-19T09:08:53.126Z,7544
2017-09-19T09:09:54.082Z,7208
2017-09-19T09:10:53.753Z,7052
2017-09-19T09:11:53.735Z,7096
2017-09-19T09:12:53.399Z,7332
2017-09-19T09:13:53.385Z,7840
2017-09-19T09:14:53.374Z,8588
2017-09-19T09:15:54.004Z,9560
2017-09-19T09:16:53.353Z,10548
2017-09-19T09:17:53.014Z,11192
2017-09-19T09:18:53.966Z,11164
2017-09-19T09:19:53.640Z,10476
2017-09-19T09:20:53.624Z,9460
2017-09-19T09:21:53.286Z,8628
2017-09-19T09:22:53.274Z,7864
2017-09-19T09:23:53.588Z,7244
2017-09-19T09:24:53.261Z,6880
2017-09-19T09:25:53.241Z,6864
2017-09-19T09:26:53.870Z,7232
2017-09-19T09:27:53.219Z,7888
2017-09-19T09:28:53.527Z,8852
2017-09-19T09:29:53.524Z,9960
2017-09-19T09:30:53.183Z,11036
2017-09-19T09:31:53.494Z,11564
2017-09-19T09:32:53.477Z,11684
2017-09-19T09:33:53.508Z,11212
2017-09-19T09:34:53.137Z,10720
2017-09-19T09:35:53.447Z,10488
2017-09-19T09:36:53.440Z,10440
2017-09-19T09:37:53.104Z,10568
2017-09-19T09:38:53.087Z,10252
2017-09-19T09:39:53.077Z,10416
2017-09-19T09:40:53.072Z,10436
2017-09-19T09:41:53.388Z,10504
2017-09-19T09:42:53.370Z,10536
2017-09-19T09:43:53.037Z,10420
2017-09-19T09:44:53.343Z,10256
2017-09-19T09:45:53.334Z,10760
2017-09-19T09:46:53.004Z,12052
2017-09-19T09:47:52.666Z,13236
2017-09-19T09:48:53.187Z,14336
2017-09-19T09:49:52.972Z,15052
2017-09-19T09:50:53.280Z,15120
2017-09-19T09:51:52.945Z,15396
2017-09-19T09:52:53.259Z,15536
2017-09-19T09:53:53.572Z,15360
2017-09-19T09:54:52.910Z,14724
2017-09-19T09:55:53.225Z,13720
2017-09-19T09:56:53.218Z,12912
2017-09-19T09:57:53.211Z,12292
2017-09-19T09:58:53.511Z,11916
2017-09-19T09:59:53.185Z,11804
2017-09-19T10:00:52.863Z,12656
2017-09-19T10:01:52.841Z,13744
2017-09-19T10:02:53.158Z,14284
2017-09-19T10:03:53.142Z,14616
2017-09-19T10:04:53.132Z,14692
2017-09-19T10:05:53.130Z,15136
2017-09-19T10:06:52.792Z,14976
2017-09-19T10:07:52.784Z,14548
2017-09-19T10:08:53.419Z,14772
2017-09-19T10:09:53.409Z,14772
2017-09-19T10:10:52.751Z,14928
2017-09-19T10:11:53.079Z,15844
2017-09-19T10:12:52.732Z,16832
2017-09-19T10:13:53.050Z,16896
2017-09-19T10:14:52.714Z,17184
2017-09-19T10:15:53.041Z,16896
2017-09-19T10:16:53.339Z,16336
2017-09-19T10:17:53.015Z,16896
2017-09-19T10:18:52.357Z,17280
2017-09-19T10:19:53.038Z,17824
2017-09-19T10:20:52.656Z,18240
2017-09-19T10:21:52.649Z,19008
2017-09-19T10:22:52.959Z,18560
2017-09-19T10:23:52.306Z,17920
2017-09-19T10:24:52.938Z,17824
2017-09-19T10:25:53.254Z,17280
2017-09-19T10:26:52.608Z,15984
2017-09-19T10:27:52.592Z,14540
2017-09-19T10:28:52.585Z,13568
2017-09-19T10:29:52.896Z,13040
2017-09-19T10:30:52.890Z,13672
2017-09-19T10:31:52.879Z,14536
2017-09-19T10:32:52.552Z,15444
2017-09-19T10:33:53.185Z,16576
2017-09-19T10:34:53.170Z,16544
2017-09-19T10:35:52.850Z,15320
2017-09-19T10:36:52.835Z,14776
2017-09-19T10:37:52.821Z,14756
2017-09-19T10:38:52.498Z,14160
2017-09-19T10:39:52.812Z,14512
2017-09-19T10:40:52.798Z,15232
2017-09-19T10:41:52.149Z,15764
2017-09-19T10:42:53.103Z,16800
2017-09-19T10:43:53.097Z,17536
2017-09-19T10:44:52.448Z,16992
2017-09-19T10:45:53.082Z,16928
2017-09-19T10:46:52.112Z,15404
2017-09-19T10:47:52.741Z,16576
2017-09-19T10:48:52.414Z,16216
2017-09-19T10:49:52.083Z,16832
2017-09-19T10:50:52.390Z,16220
2017-09-19T10:51:52.384Z,16264
2017-09-19T10:52:52.380Z,15388
2017-09-19T10:53:52.387Z,16012
2017-09-19T10:54:52.395Z,15912
2017-09-19T10:55:52.992Z,15180
2017-09-19T10:56:52.342Z,13792
2017-09-19T10:57:52.662Z,12420
2017-09-19T10:58:52.675Z,12904
2017-09-19T10:59:52.644Z,13556
2017-09-19T11:00:52.966Z,14132
2017-09-19T11:01:52.630Z,13516
2017-09-19T11:02:52.623Z,12284
2017-09-19T11:03:52.934Z,12008
2017-09-19T11:04:52.608Z,13568
2017-09-19T11:05:52.923Z,14264
2017-09-19T11:06:52.596Z,15120
2017-09-19T11:07:52.586Z,15904
2017-09-19T11:08:52.573Z,16704
2017-09-19T11:09:52.244Z,16148
2017-09-19T11:10:52.233Z,17536
2017-09-19T11:11:52.238Z,18304
2017-09-19T11:12:52.546Z,18848
2017-09-19T11:13:52.206Z,17120
2017-09-19T11:14:52.248Z,16992
2017-09-19T11:15:52.184Z,18432
2017-09-19T11:16:52.510Z,19424
2017-09-19T11:17:52.492Z,18592
2017-09-19T11:18:52.488Z,18208
2017-09-19T11:19:52.480Z,19360
2017-09-19T11:20:52.783Z,20416
2017-09-19T11:21:52.141Z,20160
2017-09-19T11:22:52.459Z,20256
2017-09-19T11:23:52.125Z,18016
2017-09-19T11:24:52.491Z,17632
2017-09-19T11:25:52.431Z,16480
2017-09-19T11:26:52.434Z,16896
2017-09-19T11:27:52.412Z,17280
2017-09-19T11:28:51.764Z,15348
2017-09-19T11:29:51.755Z,12720
2017-09-19T11:30:52.392Z,11120
2017-09-19T11:31:52.380Z,11420
2017-09-19T11:32:52.057Z,12588
2017-09-19T11:33:51.719Z,14056
2017-09-19T11:34:51.749Z,31360
2017-09-19T11:35:52.678Z,54464
2017-09-19T11:36:52.714Z,76864
2017-09-19T11:37:52.019Z,79776
2017-09-19T11:38:51.999Z,83872
2017-09-19T11:39:52.321Z,52512
2017-09-19T11:40:51.666Z,42368
2017-09-19T11:41:51.972Z,28384
2017-09-19T11:42:51.964Z,25632
2017-09-19T11:43:52.297Z,71008
2017-09-19T11:44:52.279Z,57184
2017-09-19T11:45:51.953Z,44320
2017-09-19T11:46:51.952Z,51616
2017-09-19T11:47:52.262Z,56928
2017-09-19T11:48:52.459Z,62592
2017-09-19T11:49:52.259Z,61120
2017-09-19T11:50:51.930Z,42816
2017-09-19T11:51:51.933Z,62912
2017-09-19T11:52:52.237Z,60800
2017-09-19T11:53:51.591Z,68480
2017-09-19T11:54:52.222Z,70624
2017-09-19T11:55:51.893Z,70048
2017-09-19T11:56:52.233Z,68736
2017-09-19T11:57:51.918Z,66048
2017-09-19T11:58:52.207Z,62816
2017-09-19T11:59:51.569Z,64768
2017-09-19T12:00:52.241Z,65216
2017-09-19T12:01:52.203Z,67040
2017-09-19T12:02:52.203Z,69952
2017-09-19T12:03:52.517Z,74976
2017-09-19T12:04:52.518Z,78592
2017-09-19T12:05:51.899Z,79360
2017-09-19T12:06:52.273Z,82304
2017-09-19T12:07:52.217Z,76416
2017-09-19T12:08:52.197Z,86368
2017-09-19T12:09:51.878Z,82880
2017-09-19T12:10:51.876Z,75808
2017-09-19T12:11:52.559Z,69728
2017-09-19T12:12:51.558Z,67424
2017-09-19T12:13:52.212Z,60992
2017-09-19T12:14:52.205Z,55360
2017-09-19T12:15:52.536Z,53600
2017-09-19T12:16:52.205Z,54464
2017-09-19T12:17:51.879Z,48672
2017-09-19T12:18:52.206Z,16012
2017-09-19T12:19:52.543Z,64160
2017-09-19T12:20:52.216Z,68672
2017-09-19T12:21:51.892Z,68288
2017-09-19T12:22:52.540Z,14184
2017-09-19T12:23:51.572Z,13064
2017-09-19T12:24:52.211Z,17472
2017-09-19T12:25:51.580Z,60736
2017-09-19T12:26:52.542Z,18720
2017-09-19T12:27:52.214Z,23104
2017-09-19T12:28:52.227Z,12572
2017-09-19T12:29:51.917Z,75072
2017-09-19T12:30:51.579Z,69216
2017-09-19T12:31:52.222Z,73856
2017-09-19T12:32:52.554Z,66304
2017-09-19T12:33:52.219Z,61440
2017-09-19T12:34:52.223Z,24640
2017-09-19T12:35:52.218Z,23328
2017-09-19T12:36:52.217Z,51072
2017-09-19T12:37:52.219Z,58592
2017-09-19T12:38:52.214Z,69984
2017-09-19T12:39:52.216Z,79040
2017-09-19T12:40:51.899Z,74336
2017-09-19T12:41:51.895Z,51680
2017-09-19T12:42:52.215Z,30560
2017-09-19T12:43:52.253Z,67232
2017-09-19T12:44:52.216Z,63456
2017-09-19T12:45:51.896Z,45056
2017-09-19T12:46:51.573Z,74176
2017-09-19T12:47:51.903Z,54528
2017-09-19T12:48:51.907Z,28544
2017-09-19T12:49:52.584Z,48000
2017-09-19T12:50:51.910Z,39808
2017-09-19T12:51:52.221Z,58624
2017-09-19T12:52:51.904Z,59296
2017-09-19T12:53:52.228Z,60992
2017-09-19T12:54:52.222Z,38624
2017-09-19T12:55:51.910Z,46464
2017-09-19T12:56:51.904Z,13220
2017-09-19T12:57:51.905Z,17084
2017-09-19T12:58:51.902Z,73696
2017-09-19T12:59:52.556Z,73984
2017-09-19T13:00:52.230Z,69472
2017-09-19T13:01:52.236Z,24320
2017-09-19T13:02:51.592Z,77600
2017-09-19T13:03:52.239Z,78048
2017-09-19T13:04:52.241Z,55424
2017-09-19T13:05:51.913Z,31232
2017-09-19T13:06:52.229Z,22816
2017-09-19T13:07:52.234Z,19936
2017-09-19T13:08:52.574Z,21696
2017-09-19T13:09:51.911Z,41056
2017-09-19T13:10:52.232Z,43744
2017-09-19T13:11:52.231Z,66464
2017-09-19T13:12:52.232Z,64800
2017-09-19T13:13:51.923Z,61504
2017-09-19T13:14:52.553Z,33984
2017-09-19T13:15:51.917Z,13848
2017-09-19T13:16:51.912Z,14384
2017-09-19T13:17:52.557Z,17888
2017-09-19T13:18:51.913Z,18016
2017-09-19T13:19:52.234Z,39200
2017-09-19T13:20:51.908Z,36480
2017-09-19T13:21:51.917Z,49152
2017-09-19T13:22:52.558Z,54912
2017-09-19T13:23:51.591Z,17024
2017-09-19T13:24:51.908Z,15520
2017-09-19T13:25:52.225Z,17856
2017-09-19T13:26:52.545Z,21120
2017-09-19T13:27:51.903Z,63488
2017-09-19T13:28:52.227Z,61184
2017-09-19T13:29:52.217Z,64640
2017-09-19T13:30:52.216Z,66208
2017-09-19T13:31:52.541Z,62112
2017-09-19T13:32:52.239Z,65760
2017-09-19T13:33:52.208Z,57568
2017-09-19T13:34:52.211Z,57472
2017-09-19T13:35:52.529Z,26336
2017-09-19T13:36:52.214Z,21088
2017-09-19T13:37:51.571Z,20352
2017-09-19T13:38:52.541Z,30784
2017-09-19T13:39:52.537Z,50464
2017-09-19T13:40:51.891Z,52704
2017-09-19T13:41:52.519Z,57120
2017-09-19T13:42:51.889Z,16416
2017-09-19T13:43:52.221Z,14284